createdAt,value
2018-11-26T00:00:39.286Z,53.00
2018-11-26T00:03:44.392Z,53.10
2018-11-26T00:06:37.032Z,53.00
2018-11-26T00:09:42.838Z,53.10
2018-11-26T00:12:38.691Z,53.10
2018-11-26T00:15:35.682Z,53.20
2018-11-26T00:18:32.263Z,53.20
2018-11-26T00:21:28.659Z,53.20
2018-11-26T00:24:25.192Z,53.30
2018-11-26T00:27:21.466Z,53.20
2018-11-26T00:30:18.408Z,53.20
2018-11-26T00:33:17.982Z,53.20
2018-11-26T00:36:14.277Z,53.20
2018-11-26T00:39:14.343Z,53.20
2018-11-26T00:42:10.510Z,53.30
2018-11-26T00:45:06.791Z,53.30
2018-11-26T00:48:03.349Z,53.20
2018-11-26T00:51:05.702Z,53.20
2018-11-26T00:54:01.754Z,53.30
2018-11-26T00:56:59.286Z,53.20
2018-11-26T00:59:55.669Z,53.20
2018-11-26T01:02:52.720Z,53.20
2018-11-26T01:05:49.514Z,53.30
2018-11-26T01:08:46.108Z,53.30
2018-11-26T01:11:42.523Z,53.20
2018-11-26T01:14:40.776Z,53.20
2018-11-26T01:17:38.008Z,53.20
2018-11-26T01:20:34.478Z,53.10
2018-11-26T01:23:30.819Z,53.20
2018-11-26T01:26:26.902Z,53.20
2018-11-26T01:29:23.889Z,53.20
2018-11-26T01:32:20.744Z,53.10
2018-11-26T01:35:17.031Z,53.00
2018-11-26T01:38:13.287Z,53.00
2018-11-26T01:41:09.856Z,53.00
2018-11-26T01:44:16.101Z,53.80
2018-11-26T01:47:11.938Z,53.10
2018-11-26T01:50:08.416Z,53.00
2018-11-26T01:53:09.193Z,53.00
2018-11-26T01:56:01.931Z,53.00
2018-11-26T01:58:58.323Z,53.10
2018-11-26T02:01:54.858Z,53.10
2018-11-26T02:04:51.372Z,53.00
2018-11-26T02:07:48.367Z,53.00
2018-11-26T02:10:44.873Z,53.00
2018-11-26T02:13:44.132Z,52.90
2018-11-26T02:16:43.860Z,52.90
2018-11-26T02:19:40.459Z,52.80
2018-11-26T02:22:36.975Z,53.00
2018-11-26T02:25:33.792Z,53.00
2018-11-26T02:28:30.378Z,52.90
2018-11-26T02:31:26.978Z,53.60
2018-11-26T02:34:23.568Z,52.90
2018-11-26T02:37:19.989Z,52.80
2018-11-26T02:40:27.431Z,52.70
2018-11-26T02:43:25.138Z,52.60
2018-11-26T02:46:22.473Z,52.90
2018-11-26T02:49:19.040Z,53.00
2018-11-26T02:52:16.192Z,52.90
2018-11-26T02:55:13.848Z,52.80
2018-11-26T02:58:11.689Z,52.70
2018-11-26T03:01:08.400Z,52.80
2018-11-26T03:04:05.452Z,52.60
2018-11-26T03:07:02.710Z,52.60
2018-11-26T03:09:58.783Z,52.80
2018-11-26T03:12:56.180Z,52.80
2018-11-26T03:15:53.463Z,53.00
2018-11-26T03:18:51.236Z,52.90
2018-11-26T03:21:47.819Z,52.60
2018-11-26T03:24:44.990Z,52.60
2018-11-26T03:27:41.602Z,52.80
2018-11-26T03:30:38.711Z,52.70
2018-11-26T03:33:41.888Z,52.70
2018-11-26T03:36:38.593Z,52.50
2018-11-26T03:39:39.115Z,52.70
2018-11-26T03:42:32.426Z,52.80
2018-11-26T03:45:29.026Z,52.70
2018-11-26T03:48:25.344Z,52.50
2018-11-26T03:51:22.011Z,52.50
2018-11-26T03:54:18.609Z,52.50
2018-11-26T03:57:18.051Z,52.60
2018-11-26T04:00:21.059Z,52.50
2018-11-26T04:03:17.435Z,52.30
2018-11-26T04:06:13.846Z,52.60
2018-11-26T04:09:11.856Z,52.60
2018-11-26T04:12:08.907Z,52.60
2018-11-26T04:15:05.537Z,53.00
2018-11-26T04:18:02.545Z,53.20
2018-11-26T04:20:59.306Z,52.90
2018-11-26T04:23:55.765Z,53.20
2018-11-26T04:26:52.749Z,53.30
2018-11-26T04:29:49.609Z,53.10
2018-11-26T04:32:46.299Z,53.30
2018-11-26T04:35:45.578Z,53.30
2018-11-26T04:38:41.660Z,52.80
2018-11-26T04:41:38.224Z,53.30
2018-11-26T04:44:35.616Z,53.40
2018-11-26T04:47:32.968Z,53.40
2018-11-26T04:50:29.881Z,53.30
2018-11-26T04:53:27.070Z,53.10
2018-11-26T04:56:24.443Z,52.50
2018-11-26T04:59:21.897Z,52.90
2018-11-26T05:02:18.523Z,52.80
2018-11-26T05:05:16.879Z,52.90
2018-11-26T05:19:45.031Z,52.90
2018-11-26T05:22:41.683Z,53.00
2018-11-26T05:25:39.917Z,52.90
2018-11-26T05:28:37.061Z,52.80
2018-11-26T05:31:34.001Z,52.20
2018-11-26T05:34:30.593Z,52.50
2018-11-26T05:37:28.304Z,52.20
2018-11-26T05:40:27.104Z,52.30
2018-11-26T05:43:24.802Z,52.10
2018-11-26T05:46:22.068Z,52.40
2018-11-26T05:49:18.953Z,52.70
2018-11-26T05:52:17.361Z,52.50
2018-11-26T05:55:16.391Z,52.50
2018-11-26T05:58:14.758Z,52.80
2018-11-26T06:01:11.882Z,53.10
2018-11-26T06:04:08.566Z,53.20
2018-11-26T06:07:04.952Z,53.10
2018-11-26T06:10:01.244Z,53.10
2018-11-26T06:12:57.987Z,53.60
2018-11-26T06:15:53.976Z,53.80
2018-11-26T06:18:50.226Z,54.00
2018-11-26T06:21:52.980Z,54.10
2018-11-26T06:24:58.842Z,54.10
2018-11-26T06:27:53.139Z,54.00
2018-11-26T06:30:49.599Z,54.10
2018-11-26T06:34:02.044Z,54.40
2018-11-26T06:37:01.916Z,54.50
2018-11-26T06:40:04.410Z,54.60
2018-11-26T06:43:01.957Z,54.40
2018-11-26T06:46:01.345Z,54.50
2018-11-26T06:49:06.818Z,54.60
2018-11-26T06:52:04.018Z,54.80
2018-11-26T06:55:09.290Z,54.90
2018-11-26T06:58:06.381Z,54.90
2018-11-26T07:01:03.299Z,55.10
2018-11-26T07:04:00.009Z,55.10
2018-11-26T07:06:56.261Z,54.80
2018-11-26T07:09:53.127Z,54.60
2018-11-26T07:12:52.178Z,54.80
2018-11-26T07:15:48.671Z,55.00
2018-11-26T07:18:46.783Z,54.80
2018-11-26T07:21:49.427Z,54.90
2018-11-26T07:24:46.172Z,55.10
2018-11-26T07:27:42.528Z,55.00
2018-11-26T07:30:38.553Z,55.30
2018-11-26T07:33:36.526Z,54.50
2018-11-26T07:36:34.189Z,54.80
2018-11-26T07:39:31.212Z,55.00
2018-11-26T07:42:28.560Z,55.20
2018-11-26T07:45:26.928Z,55.50
2018-11-26T07:48:29.268Z,55.50
2018-11-26T07:51:27.100Z,55.50
2018-11-26T07:54:24.680Z,55.60
2018-11-26T07:57:21.568Z,56.00
2018-11-26T08:00:18.985Z,55.80
2018-11-26T08:03:18.582Z,55.60
2018-11-26T08:06:19.373Z,55.50
2018-11-26T08:09:15.965Z,55.50
2018-11-26T08:12:12.489Z,55.50
2018-11-26T08:15:11.581Z,55.60
2018-11-26T08:18:09.523Z,55.70
2018-11-26T08:21:06.368Z,55.80
2018-11-26T08:24:02.829Z,56.00
2018-11-26T08:26:58.885Z,56.10
2018-11-26T08:29:54.795Z,55.80
2018-11-26T08:32:52.097Z,56.50
2018-11-26T08:35:49.244Z,56.50
2018-11-26T08:39:08.671Z,56.90
2018-11-26T08:42:25.710Z,56.90
2018-11-26T08:45:33.341Z,56.90
2018-11-26T08:48:31.147Z,57.00
2018-11-26T08:51:27.915Z,56.90
2018-11-26T08:54:25.123Z,56.60
2018-11-26T08:57:24.333Z,56.80
2018-11-26T09:00:20.989Z,56.70
2018-11-26T09:03:26.422Z,56.40
2018-11-26T09:06:23.399Z,56.50
2018-11-26T09:09:21.428Z,56.60
2018-11-26T09:12:17.773Z,56.60
2018-11-26T09:15:21.004Z,56.50
2018-11-26T09:18:18.433Z,56.50
2018-11-26T09:21:15.447Z,56.40
2018-11-26T09:24:13.155Z,56.40
2018-11-26T09:27:10.974Z,56.10
2018-11-26T09:30:10.664Z,56.10
2018-11-26T09:33:10.424Z,56.40
2018-11-26T09:36:09.543Z,56.20
2018-11-26T09:39:08.691Z,56.20
2018-11-26T09:42:08.608Z,56.40
2018-11-26T09:45:07.982Z,56.30
2018-11-26T09:48:06.897Z,56.80
2018-11-26T09:51:05.352Z,56.60
2018-11-26T09:54:06.405Z,56.70
2018-11-26T09:57:03.586Z,56.60
2018-11-26T10:00:00.762Z,56.60
2018-11-26T10:02:57.899Z,56.60
2018-11-26T10:05:55.595Z,56.90
2018-11-26T10:08:53.269Z,57.60
2018-11-26T10:11:51.029Z,57.70
2018-11-26T10:14:48.843Z,58.00
2018-11-26T10:17:45.517Z,58.10
2018-11-26T10:20:45.069Z,57.40
2018-11-26T10:23:41.483Z,57.50
2018-11-26T10:26:38.343Z,57.50
2018-11-26T10:29:33.941Z,58.10
2018-11-26T10:32:29.643Z,58.10
2018-11-26T10:35:25.790Z,58.20
2018-11-26T10:38:24.620Z,57.80
2018-11-26T10:41:21.347Z,57.50
2018-11-26T10:44:19.733Z,57.40
2018-11-26T10:47:17.289Z,57.80
2018-11-26T10:50:19.368Z,58.10
2018-11-26T10:53:17.276Z,58.50
2018-11-26T10:56:13.754Z,58.00
2018-11-26T10:59:10.487Z,59.00
2018-11-26T11:02:23.016Z,58.80
2018-11-26T11:05:19.120Z,59.10
2018-11-26T11:08:15.545Z,59.10
2018-11-26T11:11:12.041Z,59.10
2018-11-26T11:14:10.054Z,59.10
2018-11-26T11:17:06.769Z,59.00
2018-11-26T11:20:03.347Z,58.80
2018-11-26T11:23:00.434Z,59.10
2018-11-26T11:25:56.840Z,59.40
2018-11-26T11:28:52.693Z,59.10
2018-11-26T11:31:49.207Z,58.80
2018-11-26T11:34:45.672Z,59.00
2018-11-26T11:37:43.240Z,59.00
2018-11-26T11:40:39.717Z,59.20
2018-11-26T11:43:39.228Z,59.10
2018-11-26T11:46:36.460Z,58.80
2018-11-26T11:49:34.749Z,58.50
2018-11-26T11:52:33.411Z,58.40
2018-11-26T11:55:32.371Z,58.60
2018-11-26T11:58:31.404Z,58.80
2018-11-26T12:01:30.329Z,58.00
2018-11-26T12:04:28.845Z,57.50
2018-11-26T12:07:27.308Z,57.60
2018-11-26T12:10:25.556Z,57.70
2018-11-26T12:13:22.616Z,57.60
2018-11-26T12:16:20.081Z,57.30
2018-11-26T12:19:16.808Z,57.10
2018-11-26T12:22:15.263Z,56.50
2018-11-26T12:25:31.767Z,56.00
2018-11-26T12:28:36.409Z,55.10
2018-11-26T12:31:34.649Z,54.50
2018-11-26T12:34:31.413Z,53.70
2018-11-26T12:37:30.259Z,53.10
2018-11-26T12:40:27.681Z,52.80
2018-11-26T12:43:25.370Z,52.50
2018-11-26T12:46:22.459Z,52.10
2018-11-26T12:49:19.463Z,51.70
2018-11-26T12:52:16.983Z,51.30
2018-11-26T12:55:22.192Z,51.10
2018-11-26T12:58:20.091Z,51.00
2018-11-26T13:01:17.562Z,50.70
2018-11-26T13:04:16.924Z,50.70
2018-11-26T13:07:14.274Z,50.80
2018-11-26T13:10:11.762Z,50.90
2018-11-26T13:13:09.235Z,51.00
2018-11-26T13:16:05.168Z,50.80
2018-11-26T13:19:01.565Z,50.60
2018-11-26T13:21:57.598Z,50.50
2018-11-26T13:24:54.226Z,50.40
2018-11-26T13:27:54.951Z,50.10
2018-11-26T13:30:55.498Z,50.00
2018-11-26T13:33:52.053Z,50.00
2018-11-26T13:36:48.050Z,49.90
2018-11-26T13:39:45.113Z,49.90
2018-11-26T13:42:42.513Z,50.00
2018-11-26T13:45:49.284Z,50.00
2018-11-26T13:48:46.396Z,49.90
2018-11-26T13:51:42.941Z,49.90
2018-11-26T13:54:42.963Z,49.90
2018-11-26T13:57:39.331Z,49.80
2018-11-26T14:00:35.913Z,49.80
2018-11-26T14:03:32.420Z,50.40
2018-11-26T14:06:28.612Z,50.60
2018-11-26T14:09:25.140Z,50.70
2018-11-26T14:12:20.913Z,50.80
2018-11-26T14:15:19.087Z,50.90
2018-11-26T14:18:15.574Z,51.10
2018-11-26T14:21:11.754Z,51.20
2018-11-26T14:24:07.981Z,51.50
2018-11-26T14:27:04.159Z,51.50
2018-11-26T14:30:00.361Z,51.50
2018-11-26T14:32:56.572Z,51.60
2018-11-26T14:35:53.176Z,51.70
2018-11-26T14:38:49.215Z,51.80
2018-11-26T14:41:46.429Z,51.90
2018-11-26T14:44:43.199Z,51.90
2018-11-26T14:47:41.000Z,52.00
2018-11-26T14:50:38.053Z,52.20
2018-11-26T14:53:35.048Z,52.30
2018-11-26T14:56:32.560Z,52.40
2018-11-26T14:59:29.857Z,52.50
2018-11-26T15:02:27.925Z,52.50
2018-11-26T15:05:25.164Z,52.50
2018-11-26T15:08:22.425Z,52.50
2018-11-26T15:11:19.626Z,52.60
2018-11-26T15:14:17.178Z,52.70
2018-11-26T15:17:15.591Z,52.80
2018-11-26T15:20:18.117Z,52.90
2018-11-26T15:23:15.473Z,52.90
2018-11-26T15:26:13.195Z,52.90
2018-11-26T15:29:16.242Z,53.10
2018-11-26T15:32:16.961Z,53.10
2018-11-26T15:35:12.756Z,53.10
2018-11-26T15:38:10.272Z,53.20
2018-11-26T15:41:08.367Z,53.40
2018-11-26T15:44:05.911Z,53.50
2018-11-26T15:47:03.635Z,53.50
2018-11-26T15:50:01.367Z,53.50
2018-11-26T15:53:00.755Z,53.50
2018-11-26T15:56:01.878Z,53.60
2018-11-26T15:58:59.635Z,53.70
2018-11-26T16:01:57.189Z,53.70
2018-11-26T16:04:54.731Z,53.80
2018-11-26T16:07:56.786Z,53.70
2018-11-26T16:10:54.888Z,53.80
2018-11-26T16:13:56.482Z,53.70
2018-11-26T16:16:54.305Z,53.70
2018-11-26T16:19:54.679Z,53.80
2018-11-26T16:22:52.735Z,53.70
2018-11-26T16:25:51.385Z,53.70
2018-11-26T16:28:52.158Z,53.70
2018-11-26T16:31:49.707Z,53.80
2018-11-26T16:34:46.945Z,53.80
2018-11-26T16:37:44.236Z,53.90
2018-11-26T16:40:41.799Z,53.90
2018-11-26T16:43:39.191Z,54.00
2018-11-26T16:46:36.477Z,54.00
2018-11-26T16:49:34.012Z,54.00
2018-11-26T16:52:31.527Z,54.00
2018-11-26T16:55:30.425Z,54.00
2018-11-26T16:58:28.368Z,54.10
2018-11-26T17:01:26.577Z,54.10
2018-11-26T17:04:26.740Z,54.00
2018-11-26T17:07:24.324Z,54.00
2018-11-26T17:10:21.992Z,54.00
2018-11-26T17:13:20.484Z,54.00
2018-11-26T17:16:18.291Z,54.00
2018-11-26T17:19:15.464Z,54.00
2018-11-26T17:22:12.939Z,53.90
2018-11-26T17:25:11.029Z,54.00
2018-11-26T17:28:08.326Z,54.00
2018-11-26T17:31:05.604Z,54.10
2018-11-26T17:34:02.522Z,54.00
2018-11-26T17:36:59.675Z,54.00
2018-11-26T17:39:56.695Z,53.90
2018-11-26T17:42:54.244Z,54.00
2018-11-26T17:45:51.200Z,54.10
2018-11-26T17:48:48.446Z,54.30
2018-11-26T17:51:48.513Z,54.20
2018-11-26T17:54:44.792Z,54.10
2018-11-26T17:57:40.765Z,54.10
2018-11-26T18:00:38.442Z,54.20
2018-11-26T18:03:35.286Z,54.30
2018-11-26T18:06:31.274Z,54.30
2018-11-26T18:09:31.002Z,54.30
2018-11-26T18:12:26.989Z,54.30
2018-11-26T18:15:23.091Z,54.10
2018-11-26T18:18:20.436Z,54.10
2018-11-26T18:21:16.519Z,54.10
2018-11-26T18:24:13.007Z,54.00
2018-11-26T18:27:09.386Z,54.20
2018-11-26T18:30:05.683Z,54.10
2018-11-26T18:33:02.534Z,54.20
2018-11-26T18:36:01.474Z,54.30
2018-11-26T18:38:57.809Z,54.10
2018-11-26T18:41:55.313Z,54.10
2018-11-26T18:44:51.644Z,54.10
2018-11-26T18:47:48.408Z,54.10
2018-11-26T18:50:44.941Z,54.20
2018-11-26T18:53:41.101Z,54.30
2018-11-26T18:56:37.626Z,54.20
2018-11-26T18:59:34.071Z,54.20
2018-11-26T19:02:30.648Z,54.20
2018-11-26T19:05:27.117Z,54.20
2018-11-26T19:08:23.288Z,54.30
2018-11-26T19:11:24.240Z,54.20
2018-11-26T19:14:30.597Z,54.10
2018-11-26T19:17:27.513Z,54.20
2018-11-26T19:20:24.389Z,54.10
2018-11-26T19:23:24.328Z,54.10
2018-11-26T19:26:20.914Z,54.00
2018-11-26T19:29:20.673Z,54.10
2018-11-26T19:32:13.837Z,54.30
2018-11-26T19:35:11.155Z,54.50
2018-11-26T19:38:07.197Z,54.70
2018-11-26T19:41:03.155Z,54.80
2018-11-26T19:43:59.301Z,54.40
2018-11-26T19:46:55.589Z,54.90
2018-11-26T19:49:51.756Z,54.50
2018-11-26T19:52:52.594Z,54.40
2018-11-26T19:55:49.250Z,54.20
2018-11-26T19:58:45.272Z,54.20
2018-11-26T20:01:42.061Z,54.40
2018-11-26T20:04:53.891Z,54.30
2018-11-26T20:07:49.980Z,54.50
2018-11-26T20:10:46.510Z,54.30
2018-11-26T20:13:42.813Z,54.40
2018-11-26T20:16:44.879Z,54.40
2018-11-26T20:19:41.608Z,54.20
2018-11-26T20:22:40.076Z,54.30
2018-11-26T20:25:35.893Z,54.30
2018-11-26T20:28:32.347Z,54.60
2018-11-26T20:31:28.784Z,54.40
2018-11-26T20:34:24.863Z,54.40
2018-11-26T20:37:21.263Z,54.20
2018-11-26T20:40:21.665Z,54.20
2018-11-26T20:43:24.379Z,54.30
2018-11-26T20:46:20.904Z,54.30
2018-11-26T20:49:17.276Z,54.30
2018-11-26T20:52:13.646Z,54.40
2018-11-26T20:55:11.110Z,54.50
2018-11-26T20:58:07.420Z,54.40
2018-11-26T21:01:03.517Z,54.20
2018-11-26T21:04:03.930Z,54.20
2018-11-26T21:07:00.841Z,54.20
2018-11-26T21:09:57.063Z,54.20
2018-11-26T21:12:53.386Z,54.30
2018-11-26T21:15:50.764Z,54.30
2018-11-26T21:18:47.239Z,54.20
2018-11-26T21:21:43.406Z,54.40
2018-11-26T21:24:39.681Z,54.50
2018-11-26T21:27:35.993Z,54.60
2018-11-26T21:30:32.365Z,54.50
2018-11-26T21:33:28.773Z,54.40
2018-11-26T21:36:24.652Z,54.30
2018-11-26T21:39:21.194Z,54.20
2018-11-26T21:42:21.025Z,54.20
2018-11-26T21:45:22.027Z,54.30
2018-11-26T21:48:18.789Z,54.30
2018-11-26T21:51:15.294Z,54.20
2018-11-26T21:54:11.679Z,54.10
2018-11-26T21:57:08.411Z,54.20
2018-11-26T22:00:07.105Z,54.20
2018-11-26T22:03:15.309Z,54.20
2018-11-26T22:06:12.347Z,54.20
2018-11-26T22:09:09.252Z,54.20
2018-11-26T22:12:05.273Z,54.40
2018-11-26T22:15:01.260Z,54.20
2018-11-26T22:18:01.083Z,54.20
2018-11-26T22:20:57.387Z,54.30
2018-11-26T22:23:53.826Z,54.10
2018-11-26T22:26:50.270Z,54.10
2018-11-26T22:29:46.867Z,54.30
2018-11-26T22:32:43.336Z,54.30
2018-11-26T22:35:39.825Z,54.10
2018-11-26T22:38:36.205Z,54.00
2018-11-26T22:41:33.156Z,54.00
2018-11-26T22:44:29.165Z,54.00
2018-11-26T22:47:25.281Z,53.80
2018-11-26T22:50:23.191Z,54.10
2018-11-26T22:53:19.986Z,54.00
2018-11-26T22:56:16.151Z,54.00
2018-11-26T22:59:12.607Z,54.00
2018-11-26T23:02:08.833Z,54.00
2018-11-26T23:05:05.099Z,54.00
2018-11-26T23:08:01.512Z,53.90
2018-11-26T23:10:57.825Z,53.90
2018-11-26T23:13:54.541Z,53.30
2018-11-26T23:16:51.011Z,54.00
2018-11-26T23:19:47.093Z,54.00
2018-11-26T23:22:43.399Z,53.90
2018-11-26T23:25:39.437Z,54.00
2018-11-26T23:28:35.717Z,54.00
2018-11-26T23:31:32.004Z,54.10
2018-11-26T23:34:27.746Z,54.10
2018-11-26T23:37:30.373Z,54.10
2018-11-26T23:40:27.734Z,54.00
2018-11-26T23:43:23.570Z,54.00
2018-11-26T23:46:23.723Z,53.80
2018-11-26T23:49:20.222Z,54.10
2018-11-26T23:52:17.027Z,53.70
2018-11-26T23:55:17.481Z,53.90
2018-11-26T23:58:14.107Z,53.70
